sensor_id;sensor_type;location;lat;lon;timestamp;P1;durP1;ratioP1;P2;durP2;ratioP2
21272;SDS011;36726;52.328;10.552;2022-08-05T00:01:29;4.80;;;2.92;;
21272;SDS011;36726;52.328;10.552;2022-08-05T00:04:13;12.63;;;4.55;;
21272;SDS011;36726;52.328;10.552;2022-08-05T00:06:41;6.72;;;4.15;;
21272;SDS011;36726;52.328;10.552;2022-08-05T00:09:08;6.25;;;4.53;;
21272;SDS011;36726;52.328;10.552;2022-08-05T00:11:40;6.15;;;4.20;;
21272;SDS011;36726;52.328;10.552;2022-08-05T00:14:15;4.65;;;3.40;;
21272;SDS011;36726;52.328;10.552;2022-08-05T00:16:43;3.85;;;3.08;;
21272;SDS011;36726;52.328;10.552;2022-08-05T00:19:19;4.50;;;3.67;;
21272;SDS011;36726;52.328;10.552;2022-08-05T00:21:50;4.88;;;3.78;;
21272;SDS011;36726;52.328;10.552;2022-08-05T00:24:19;5.43;;;3.95;;
21272;SDS011;36726;52.328;10.552;2022-08-05T00:26:55;6.13;;;4.15;;
21272;SDS011;36726;52.328;10.552;2022-08-05T00:29:23;5.50;;;4.15;;
21272;SDS011;36726;52.328;10.552;2022-08-05T00:31:52;7.30;;;4.50;;
21272;SDS011;36726;52.328;10.552;2022-08-05T00:34:40;5.82;;;3.63;;
21272;SDS011;36726;52.328;10.552;2022-08-05T00:37:27;4.95;;;3.95;;
21272;SDS011;36726;52.328;10.552;2022-08-05T00:40:13;7.72;;;4.30;;
21272;SDS011;36726;52.328;10.552;2022-08-05T00:42:52;6.50;;;3.92;;
21272;SDS011;36726;52.328;10.552;2022-08-05T00:45:20;6.28;;;4.50;;
21272;SDS011;36726;52.328;10.552;2022-08-05T00:48:06;5.75;;;4.22;;
21272;SDS011;36726;52.328;10.552;2022-08-05T00:50:35;5.90;;;4.53;;
21272;SDS011;36726;52.328;10.552;2022-08-05T00:53:01;6.15;;;4.20;;
21272;SDS011;36726;52.328;10.552;2022-08-05T00:55:35;10.82;;;4.40;;
21272;SDS011;36726;52.328;10.552;2022-08-05T00:58:12;6.57;;;4.57;;
21272;SDS011;36726;52.328;10.552;2022-08-05T01:00:44;7.07;;;3.80;;
21272;SDS011;36726;52.328;10.552;2022-08-05T01:03:12;4.90;;;4.07;;
21272;SDS011;36726;52.328;10.552;2022-08-05T01:05:49;5.68;;;4.43;;
21272;SDS011;36726;52.328;10.552;2022-08-05T01:08:17;6.93;;;4.20;;
21272;SDS011;36726;52.328;10.552;2022-08-05T01:11:11;6.15;;;4.70;;
21272;SDS011;36726;52.328;10.552;2022-08-05T01:14:24;5.05;;;4.18;;
21272;SDS011;36726;52.328;10.552;2022-08-05T01:19:57;6.75;;;4.40;;
21272;SDS011;36726;52.328;10.552;2022-08-05T01:31:09;9.95;;;5.10;;
21272;SDS011;36726;52.328;10.552;2022-08-05T01:33:46;6.15;;;4.88;;
21272;SDS011;36726;52.328;10.552;2022-08-05T01:36:21;7.47;;;5.00;;
21272;SDS011;36726;52.328;10.552;2022-08-05T01:38:53;7.70;;;5.20;;
21272;SDS011;36726;52.328;10.552;2022-08-05T01:41:25;10.25;;;4.63;;
21272;SDS011;36726;52.328;10.552;2022-08-05T01:43:54;7.95;;;4.90;;
21272;SDS011;36726;52.328;10.552;2022-08-05T01:46:22;7.05;;;4.55;;
21272;SDS011;36726;52.328;10.552;2022-08-05T01:49:11;12.95;;;4.63;;
21272;SDS011;36726;52.328;10.552;2022-08-05T01:51:51;8.77;;;4.68;;
21272;SDS011;36726;52.328;10.552;2022-08-05T01:54:25;9.57;;;5.20;;
21272;SDS011;36726;52.328;10.552;2022-08-05T01:56:57;5.45;;;4.47;;
21272;SDS011;36726;52.328;10.552;2022-08-05T01:59:46;7.03;;;4.90;;
21272;SDS011;36726;52.328;10.552;2022-08-05T02:02:14;7.95;;;5.07;;
21272;SDS011;36726;52.328;10.552;2022-08-05T02:04:51;6.75;;;5.15;;
21272;SDS011;36726;52.328;10.552;2022-08-05T02:07:21;8.27;;;4.53;;
21272;SDS011;36726;52.328;10.552;2022-08-05T02:09:49;5.72;;;4.63;;
21272;SDS011;36726;52.328;10.552;2022-08-05T02:14:51;9.88;;;5.15;;
21272;SDS011;36726;52.328;10.552;2022-08-05T02:17:40;6.55;;;4.55;;
21272;SDS011;36726;52.328;10.552;2022-08-05T02:20:36;7.25;;;4.60;;
21272;SDS011;36726;52.328;10.552;2022-08-05T02:23:25;6.40;;;4.60;;
21272;SDS011;36726;52.328;10.552;2022-08-05T02:25:59;7.45;;;4.40;;
21272;SDS011;36726;52.328;10.552;2022-08-05T02:28:31;11.98;;;4.80;;
21272;SDS011;36726;52.328;10.552;2022-08-05T02:31:11;5.40;;;4.53;;
21272;SDS011;36726;52.328;10.552;2022-08-05T02:33:48;7.93;;;5.00;;
21272;SDS011;36726;52.328;10.552;2022-08-05T02:36:23;7.93;;;5.03;;
21272;SDS011;36726;52.328;10.552;2022-08-05T02:38:56;10.07;;;4.88;;
21272;SDS011;36726;52.328;10.552;2022-08-05T02:41:24;6.60;;;4.57;;
21272;SDS011;36726;52.328;10.552;2022-08-05T02:43:54;9.38;;;4.60;;
21272;SDS011;36726;52.328;10.552;2022-08-05T02:46:32;9.73;;;5.18;;
21272;SDS011;36726;52.328;10.552;2022-08-05T02:49:00;8.40;;;5.20;;
21272;SDS011;36726;52.328;10.552;2022-08-05T02:51:27;7.30;;;4.80;;
21272;SDS011;36726;52.328;10.552;2022-08-05T02:54:15;7.88;;;5.13;;
21272;SDS011;36726;52.328;10.552;2022-08-05T02:57:02;7.85;;;4.50;;
21272;SDS011;36726;52.328;10.552;2022-08-05T02:59:52;8.50;;;5.22;;
21272;SDS011;36726;52.328;10.552;2022-08-05T03:02:30;9.30;;;4.72;;
21272;SDS011;36726;52.328;10.552;2022-08-05T03:05:01;11.35;;;5.78;;
21272;SDS011;36726;52.328;10.552;2022-08-05T03:07:29;7.88;;;4.90;;
21272;SDS011;36726;52.328;10.552;2022-08-05T03:10:16;8.18;;;4.75;;
21272;SDS011;36726;52.328;10.552;2022-08-05T03:12:50;6.88;;;5.45;;
21272;SDS011;36726;52.328;10.552;2022-08-05T03:15:18;10.32;;;5.35;;
21272;SDS011;36726;52.328;10.552;2022-08-05T03:17:49;8.18;;;5.40;;
21272;SDS011;36726;52.328;10.552;2022-08-05T03:20:22;8.98;;;5.22;;
21272;SDS011;36726;52.328;10.552;2022-08-05T03:22:49;8.35;;;5.07;;
21272;SDS011;36726;52.328;10.552;2022-08-05T03:25:17;9.52;;;5.50;;
21272;SDS011;36726;52.328;10.552;2022-08-05T03:27:59;10.02;;;5.45;;
21272;SDS011;36726;52.328;10.552;2022-08-05T03:30:30;7.78;;;5.43;;
21272;SDS011;36726;52.328;10.552;2022-08-05T03:33:00;8.68;;;5.15;;
21272;SDS011;36726;52.328;10.552;2022-08-05T03:35:31;8.18;;;5.10;;
21272;SDS011;36726;52.328;10.552;2022-08-05T03:38:11;6.25;;;4.88;;
21272;SDS011;36726;52.328;10.552;2022-08-05T03:40:43;7.85;;;4.80;;
21272;SDS011;36726;52.328;10.552;2022-08-05T03:43:16;6.82;;;5.03;;
21272;SDS011;36726;52.328;10.552;2022-08-05T03:46:03;8.52;;;5.38;;
21272;SDS011;36726;52.328;10.552;2022-08-05T03:48:33;10.93;;;5.03;;
21272;SDS011;36726;52.328;10.552;2022-08-05T03:51:09;7.40;;;5.50;;
21272;SDS011;36726;52.328;10.552;2022-08-05T03:54:02;8.18;;;5.47;;
21272;SDS011;36726;52.328;10.552;2022-08-05T03:57:09;8.05;;;5.25;;
21272;SDS011;36726;52.328;10.552;2022-08-05T03:59:45;10.35;;;5.00;;
21272;SDS011;36726;52.328;10.552;2022-08-05T04:02:22;10.05;;;5.22;;
21272;SDS011;36726;52.328;10.552;2022-08-05T04:05:10;7.38;;;6.10;;
21272;SDS011;36726;52.328;10.552;2022-08-05T04:07:39;6.60;;;5.35;;
21272;SDS011;36726;52.328;10.552;2022-08-05T04:10:23;7.63;;;5.22;;
21272;SDS011;36726;52.328;10.552;2022-08-05T04:12:53;6.97;;;5.53;;
21272;SDS011;36726;52.328;10.552;2022-08-05T04:15:24;7.80;;;4.85;;
21272;SDS011;36726;52.328;10.552;2022-08-05T04:18:00;9.45;;;5.38;;
21272;SDS011;36726;52.328;10.552;2022-08-05T04:20:32;6.97;;;5.25;;
21272;SDS011;36726;52.328;10.552;2022-08-05T04:22:58;9.10;;;6.00;;
21272;SDS011;36726;52.328;10.552;2022-08-05T04:25:26;7.95;;;5.32;;
21272;SDS011;36726;52.328;10.552;2022-08-05T04:28:12;7.20;;;4.97;;
21272;SDS011;36726;52.328;10.552;2022-08-05T04:30:40;7.65;;;5.10;;
21272;SDS011;36726;52.328;10.552;2022-08-05T04:33:08;8.50;;;5.22;;
21272;SDS011;36726;52.328;10.552;2022-08-05T04:35:34;7.95;;;5.50;;
21272;SDS011;36726;52.328;10.552;2022-08-05T04:38:21;7.30;;;5.18;;
21272;SDS011;36726;52.328;10.552;2022-08-05T04:41:05;8.52;;;5.55;;
21272;SDS011;36726;52.328;10.552;2022-08-05T04:43:34;9.38;;;5.40;;
21272;SDS011;36726;52.328;10.552;2022-08-05T04:46:02;7.65;;;5.47;;
21272;SDS011;36726;52.328;10.552;2022-08-05T04:48:30;7.38;;;5.60;;
21272;SDS011;36726;52.328;10.552;2022-08-05T04:50:57;8.35;;;5.45;;
21272;SDS011;36726;52.328;10.552;2022-08-05T04:53:35;9.73;;;5.13;;
21272;SDS011;36726;52.328;10.552;2022-08-05T04:56:05;7.63;;;5.63;;
21272;SDS011;36726;52.328;10.552;2022-08-05T04:58:54;7.30;;;5.30;;
21272;SDS011;36726;52.328;10.552;2022-08-05T05:01:21;11.60;;;5.20;;
21272;SDS011;36726;52.328;10.552;2022-08-05T05:04:08;7.93;;;4.47;;
21272;SDS011;36726;52.328;10.552;2022-08-05T05:06:35;7.60;;;5.03;;
21272;SDS011;36726;52.328;10.552;2022-08-05T05:09:14;8.35;;;4.70;;
21272;SDS011;36726;52.328;10.552;2022-08-05T05:11:43;5.22;;;4.40;;
21272;SDS011;36726;52.328;10.552;2022-08-05T05:14:21;5.65;;;4.70;;
21272;SDS011;36726;52.328;10.552;2022-08-05T05:17:00;7.20;;;4.38;;
21272;SDS011;36726;52.328;10.552;2022-08-05T05:19:26;6.43;;;4.85;;
21272;SDS011;36726;52.328;10.552;2022-08-05T05:22:09;8.10;;;4.93;;
21272;SDS011;36726;52.328;10.552;2022-08-05T05:24:54;6.97;;;4.32;;
21272;SDS011;36726;52.328;10.552;2022-08-05T05:27:29;6.28;;;4.30;;
21272;SDS011;36726;52.328;10.552;2022-08-05T05:30:14;8.00;;;4.07;;
21272;SDS011;36726;52.328;10.552;2022-08-05T05:32:58;9.63;;;4.60;;
21272;SDS011;36726;52.328;10.552;2022-08-05T05:35:41;6.20;;;4.63;;
21272;SDS011;36726;52.328;10.552;2022-08-05T05:38:08;10.50;;;4.95;;
21272;SDS011;36726;52.328;10.552;2022-08-05T05:40:39;11.75;;;5.78;;
21272;SDS011;36726;52.328;10.552;2022-08-05T05:43:16;9.60;;;5.03;;
21272;SDS011;36726;52.328;10.552;2022-08-05T05:46:03;7.50;;;5.03;;
21272;SDS011;36726;52.328;10.552;2022-08-05T05:48:32;8.48;;;5.57;;
21272;SDS011;36726;52.328;10.552;2022-08-05T05:50:59;7.78;;;5.18;;
21272;SDS011;36726;52.328;10.552;2022-08-05T05:53:40;6.15;;;4.80;;
21272;SDS011;36726;52.328;10.552;2022-08-05T05:56:27;8.85;;;5.75;;
21272;SDS011;36726;52.328;10.552;2022-08-05T05:59:02;7.32;;;4.93;;
21272;SDS011;36726;52.328;10.552;2022-08-05T06:01:32;9.68;;;5.80;;
21272;SDS011;36726;52.328;10.552;2022-08-05T06:04:07;9.15;;;5.53;;
21272;SDS011;36726;52.328;10.552;2022-08-05T06:06:41;9.82;;;6.15;;
21272;SDS011;36726;52.328;10.552;2022-08-05T06:09:14;7.05;;;5.40;;
21272;SDS011;36726;52.328;10.552;2022-08-05T06:11:52;6.78;;;5.15;;
21272;SDS011;36726;52.328;10.552;2022-08-05T06:14:28;6.28;;;4.97;;
21272;SDS011;36726;52.328;10.552;2022-08-05T06:16:56;8.80;;;5.90;;
21272;SDS011;36726;52.328;10.552;2022-08-05T06:19:23;8.15;;;5.53;;
21272;SDS011;36726;52.328;10.552;2022-08-05T06:22:00;5.88;;;4.68;;
21272;SDS011;36726;52.328;10.552;2022-08-05T06:24:28;7.38;;;5.13;;
21272;SDS011;36726;52.328;10.552;2022-08-05T06:26:56;8.95;;;5.30;;
21272;SDS011;36726;52.328;10.552;2022-08-05T06:29:23;8.75;;;4.80;;
21272;SDS011;36726;52.328;10.552;2022-08-05T06:32:10;10.50;;;5.45;;
21272;SDS011;36726;52.328;10.552;2022-08-05T06:34:50;8.05;;;5.47;;
21272;SDS011;36726;52.328;10.552;2022-08-05T06:37:21;7.72;;;5.47;;
21272;SDS011;36726;52.328;10.552;2022-08-05T06:40:07;10.73;;;5.65;;
21272;SDS011;36726;52.328;10.552;2022-08-05T06:42:35;9.77;;;5.43;;
21272;SDS011;36726;52.328;10.552;2022-08-05T06:45:05;7.38;;;5.68;;
21272;SDS011;36726;52.328;10.552;2022-08-05T06:47:34;11.18;;;5.93;;
21272;SDS011;36726;52.328;10.552;2022-08-05T06:50:21;7.88;;;5.47;;
21272;SDS011;36726;52.328;10.552;2022-08-05T06:52:49;10.15;;;6.22;;
21272;SDS011;36726;52.328;10.552;2022-08-05T06:55:35;9.35;;;6.70;;
21272;SDS011;36726;52.328;10.552;2022-08-05T06:58:02;9.70;;;6.57;;
21272;SDS011;36726;52.328;10.552;2022-08-05T07:00:49;10.57;;;7.03;;
21272;SDS011;36726;52.328;10.552;2022-08-05T07:03:16;13.02;;;8.00;;
21272;SDS011;36726;52.328;10.552;2022-08-05T07:05:43;13.30;;;7.88;;
21272;SDS011;36726;52.328;10.552;2022-08-05T07:08:12;13.15;;;8.93;;
21272;SDS011;36726;52.328;10.552;2022-08-05T07:10:39;13.57;;;9.68;;
21272;SDS011;36726;52.328;10.552;2022-08-05T07:13:18;16.05;;;9.65;;
21272;SDS011;36726;52.328;10.552;2022-08-05T07:16:23;12.07;;;9.20;;
21272;SDS011;36726;52.328;10.552;2022-08-05T07:19:28;16.13;;;10.23;;
21272;SDS011;36726;52.328;10.552;2022-08-05T07:22:15;15.15;;;9.77;;
21272;SDS011;36726;52.328;10.552;2022-08-05T07:24:42;16.67;;;9.93;;
21272;SDS011;36726;52.328;10.552;2022-08-05T07:27:17;19.80;;;10.18;;
21272;SDS011;36726;52.328;10.552;2022-08-05T07:29:46;16.38;;;10.18;;
21272;SDS011;36726;52.328;10.552;2022-08-05T07:32:36;13.23;;;9.55;;
21272;SDS011;36726;52.328;10.552;2022-08-05T07:35:09;15.05;;;9.50;;
21272;SDS011;36726;52.328;10.552;2022-08-05T07:37:57;15.63;;;9.38;;
21272;SDS011;36726;52.328;10.552;2022-08-05T07:40:24;12.68;;;8.43;;
21272;SDS011;36726;52.328;10.552;2022-08-05T07:42:58;14.57;;;8.73;;
21272;SDS011;36726;52.328;10.552;2022-08-05T07:45:30;12.27;;;8.27;;
21272;SDS011;36726;52.328;10.552;2022-08-05T07:48:17;10.48;;;8.13;;
21272;SDS011;36726;52.328;10.552;2022-08-05T07:51:04;35.80;;;22.73;;
21272;SDS011;36726;52.328;10.552;2022-08-05T07:53:49;16.48;;;8.82;;
21272;SDS011;36726;52.328;10.552;2022-08-05T07:56:17;10.05;;;7.63;;
21272;SDS011;36726;52.328;10.552;2022-08-05T07:59:03;10.05;;;7.47;;
21272;SDS011;36726;52.328;10.552;2022-08-05T08:01:33;12.32;;;7.78;;
21272;SDS011;36726;52.328;10.552;2022-08-05T08:04:06;13.65;;;8.10;;
21272;SDS011;36726;52.328;10.552;2022-08-05T08:06:33;9.15;;;6.88;;
21272;SDS011;36726;52.328;10.552;2022-08-05T08:09:00;11.70;;;7.50;;
21272;SDS011;36726;52.328;10.552;2022-08-05T08:11:28;15.10;;;7.68;;
21272;SDS011;36726;52.328;10.552;2022-08-05T08:14:14;13.02;;;6.75;;
21272;SDS011;36726;52.328;10.552;2022-08-05T08:16:44;8.05;;;6.55;;
21272;SDS011;36726;52.328;10.552;2022-08-05T08:19:16;12.20;;;6.55;;
21272;SDS011;36726;52.328;10.552;2022-08-05T08:22:03;8.85;;;6.45;;
21272;SDS011;36726;52.328;10.552;2022-08-05T08:24:34;11.63;;;7.10;;
21272;SDS011;36726;52.328;10.552;2022-08-05T08:27:17;7.38;;;5.20;;
21272;SDS011;36726;52.328;10.552;2022-08-05T08:29:44;7.13;;;5.20;;
21272;SDS011;36726;52.328;10.552;2022-08-05T08:32:32;8.20;;;5.75;;
21272;SDS011;36726;52.328;10.552;2022-08-05T08:35:07;7.68;;;5.57;;
21272;SDS011;36726;52.328;10.552;2022-08-05T08:37:38;6.85;;;5.40;;
21272;SDS011;36726;52.328;10.552;2022-08-05T08:40:10;7.97;;;5.30;;
21272;SDS011;36726;52.328;10.552;2022-08-05T08:42:38;9.57;;;6.03;;
21272;SDS011;36726;52.328;10.552;2022-08-05T08:45:15;5.78;;;4.95;;
21272;SDS011;36726;52.328;10.552;2022-08-05T08:47:52;8.05;;;5.55;;
21272;SDS011;36726;52.328;10.552;2022-08-05T08:50:40;6.65;;;5.50;;
21272;SDS011;36726;52.328;10.552;2022-08-05T08:53:28;11.10;;;4.70;;
21272;SDS011;36726;52.328;10.552;2022-08-05T08:56:01;8.98;;;5.32;;
21272;SDS011;36726;52.328;10.552;2022-08-05T08:58:31;9.10;;;5.15;;
21272;SDS011;36726;52.328;10.552;2022-08-05T09:01:10;8.13;;;5.88;;
21272;SDS011;36726;52.328;10.552;2022-08-05T09:03:46;11.02;;;6.07;;
21272;SDS011;36726;52.328;10.552;2022-08-05T09:06:22;7.22;;;5.30;;
21272;SDS011;36726;52.328;10.552;2022-08-05T09:08:56;7.25;;;5.13;;
21272;SDS011;36726;52.328;10.552;2022-08-05T09:11:26;9.50;;;5.60;;
21272;SDS011;36726;52.328;10.552;2022-08-05T09:14:13;6.53;;;5.13;;
21272;SDS011;36726;52.328;10.552;2022-08-05T09:17:00;7.72;;;5.57;;
21272;SDS011;36726;52.328;10.552;2022-08-05T09:19:29;7.38;;;5.53;;
21272;SDS011;36726;52.328;10.552;2022-08-05T09:22:16;6.30;;;5.25;;
21272;SDS011;36726;52.328;10.552;2022-08-05T09:24:57;10.13;;;6.32;;
21272;SDS011;36726;52.328;10.552;2022-08-05T09:27:48;7.93;;;5.93;;
21272;SDS011;36726;52.328;10.552;2022-08-05T09:30:32;6.63;;;5.57;;
21272;SDS011;36726;52.328;10.552;2022-08-05T09:33:00;9.25;;;6.20;;
21272;SDS011;36726;52.328;10.552;2022-08-05T09:35:30;9.15;;;5.68;;
21272;SDS011;36726;52.328;10.552;2022-08-05T09:37:57;12.07;;;6.43;;
21272;SDS011;36726;52.328;10.552;2022-08-05T09:40:44;9.77;;;5.45;;
21272;SDS011;36726;52.328;10.552;2022-08-05T09:43:24;7.45;;;6.03;;
21272;SDS011;36726;52.328;10.552;2022-08-05T09:46:06;9.63;;;6.25;;
21272;SDS011;36726;52.328;10.552;2022-08-05T09:49:01;8.93;;;5.85;;
21272;SDS011;36726;52.328;10.552;2022-08-05T09:51:45;15.40;;;6.22;;
21272;SDS011;36726;52.328;10.552;2022-08-05T09:54:15;7.70;;;5.45;;
21272;SDS011;36726;52.328;10.552;2022-08-05T09:56:46;7.63;;;6.13;;
21272;SDS011;36726;52.328;10.552;2022-08-05T09:59:17;8.27;;;6.15;;
21272;SDS011;36726;52.328;10.552;2022-08-05T10:01:52;9.35;;;5.80;;
21272;SDS011;36726;52.328;10.552;2022-08-05T10:04:31;7.85;;;5.80;;
21272;SDS011;36726;52.328;10.552;2022-08-05T10:07:01;8.50;;;6.00;;
21272;SDS011;36726;52.328;10.552;2022-08-05T10:09:54;6.07;;;5.30;;
21272;SDS011;36726;52.328;10.552;2022-08-05T10:12:41;8.50;;;5.65;;
21272;SDS011;36726;52.328;10.552;2022-08-05T10:18:07;5.22;;;4.68;;
21272;SDS011;36726;52.328;10.552;2022-08-05T10:23:35;4.95;;;3.95;;
21272;SDS011;36726;52.328;10.552;2022-08-05T10:26:21;4.38;;;3.92;;
21272;SDS011;36726;52.328;10.552;2022-08-05T10:28:58;5.63;;;4.20;;
21272;SDS011;36726;52.328;10.552;2022-08-05T10:31:24;6.32;;;3.88;;
21272;SDS011;36726;52.328;10.552;2022-08-05T10:34:12;3.63;;;3.00;;
21272;SDS011;36726;52.328;10.552;2022-08-05T10:36:39;6.32;;;3.70;;
21272;SDS011;36726;52.328;10.552;2022-08-05T10:39:17;5.00;;;3.72;;
21272;SDS011;36726;52.328;10.552;2022-08-05T10:42:12;4.10;;;3.42;;
21272;SDS011;36726;52.328;10.552;2022-08-05T10:44:59;3.80;;;3.25;;
21272;SDS011;36726;52.328;10.552;2022-08-05T10:47:30;4.57;;;3.70;;
21272;SDS011;36726;52.328;10.552;2022-08-05T10:49:59;4.05;;;3.47;;
21272;SDS011;36726;52.328;10.552;2022-08-05T10:52:57;4.05;;;3.65;;
21272;SDS011;36726;52.328;10.552;2022-08-05T10:55:25;6.03;;;3.70;;
21272;SDS011;36726;52.328;10.552;2022-08-05T10:58:08;7.85;;;3.95;;
21272;SDS011;36726;52.328;10.552;2022-08-05T11:00:44;6.85;;;3.95;;
21272;SDS011;36726;52.328;10.552;2022-08-05T11:03:12;10.43;;;3.95;;
21272;SDS011;36726;52.328;10.552;2022-08-05T11:11:50;5.28;;;4.07;;
21272;SDS011;36726;52.328;10.552;2022-08-05T11:14:23;5.22;;;3.65;;
21272;SDS011;36726;52.328;10.552;2022-08-05T11:20:30;4.60;;;3.65;;
21272;SDS011;36726;52.328;10.552;2022-08-05T11:23:29;5.15;;;3.90;;
21272;SDS011;36726;52.328;10.552;2022-08-05T11:26:19;6.07;;;4.13;;
21272;SDS011;36726;52.328;10.552;2022-08-05T11:28:58;5.50;;;4.20;;
21272;SDS011;36726;52.328;10.552;2022-08-05T11:31:42;5.72;;;4.28;;
21272;SDS011;36726;52.328;10.552;2022-08-05T11:34:34;5.78;;;3.90;;
21272;SDS011;36726;52.328;10.552;2022-08-05T11:43:42;7.40;;;5.40;;
21272;SDS011;36726;52.328;10.552;2022-08-05T11:49:41;6.95;;;5.30;;
21272;SDS011;36726;52.328;10.552;2022-08-05T11:52:21;8.10;;;5.32;;
21272;SDS011;36726;52.328;10.552;2022-08-05T11:54:55;5.97;;;4.07;;
21272;SDS011;36726;52.328;10.552;2022-08-05T11:57:27;8.68;;;4.82;;
21272;SDS011;36726;52.328;10.552;2022-08-05T11:59:56;6.63;;;4.45;;
21272;SDS011;36726;52.328;10.552;2022-08-05T12:02:28;6.45;;;4.60;;
21272;SDS011;36726;52.328;10.552;2022-08-05T12:05:02;5.65;;;4.70;;
21272;SDS011;36726;52.328;10.552;2022-08-05T12:07:43;6.88;;;5.00;;
21272;SDS011;36726;52.328;10.552;2022-08-05T12:10:29;5.80;;;4.00;;
21272;SDS011;36726;52.328;10.552;2022-08-05T12:13:10;4.95;;;3.03;;
21272;SDS011;36726;52.328;10.552;2022-08-05T12:15:43;3.25;;;2.60;;
21272;SDS011;36726;52.328;10.552;2022-08-05T12:18:18;4.20;;;2.40;;
21272;SDS011;36726;52.328;10.552;2022-08-05T12:20:49;4.45;;;2.65;;
21272;SDS011;36726;52.328;10.552;2022-08-05T12:23:16;5.15;;;2.17;;
21272;SDS011;36726;52.328;10.552;2022-08-05T12:25:52;5.72;;;2.28;;
21272;SDS011;36726;52.328;10.552;2022-08-05T12:31:18;2.50;;;1.77;;
21272;SDS011;36726;52.328;10.552;2022-08-05T12:33:58;2.78;;;1.73;;
21272;SDS011;36726;52.328;10.552;2022-08-05T12:36:29;3.35;;;1.80;;
21272;SDS011;36726;52.328;10.552;2022-08-05T12:38:56;1.98;;;1.70;;
21272;SDS011;36726;52.328;10.552;2022-08-05T12:41:28;2.10;;;1.55;;
21272;SDS011;36726;52.328;10.552;2022-08-05T12:44:04;5.60;;;1.38;;
21272;SDS011;36726;52.328;10.552;2022-08-05T12:46:40;2.90;;;1.80;;
21272;SDS011;36726;52.328;10.552;2022-08-05T12:49:12;3.13;;;1.40;;
21272;SDS011;36726;52.328;10.552;2022-08-05T12:54:31;2.75;;;1.70;;
21272;SDS011;36726;52.328;10.552;2022-08-05T12:59:33;1.90;;;1.42;;
21272;SDS011;36726;52.328;10.552;2022-08-05T13:02:34;3.70;;;1.60;;
21272;SDS011;36726;52.328;10.552;2022-08-05T13:05:04;3.00;;;1.67;;
21272;SDS011;36726;52.328;10.552;2022-08-05T13:07:31;4.65;;;1.70;;
21272;SDS011;36726;52.328;10.552;2022-08-05T13:10:18;1.88;;;1.40;;
21272;SDS011;36726;52.328;10.552;2022-08-05T13:12:45;1.55;;;1.45;;
21272;SDS011;36726;52.328;10.552;2022-08-05T13:15:27;2.63;;;1.67;;
21272;SDS011;36726;52.328;10.552;2022-08-05T13:18:16;2.22;;;1.83;;
21272;SDS011;36726;52.328;10.552;2022-08-05T13:20:49;2.03;;;1.80;;
21272;SDS011;36726;52.328;10.552;2022-08-05T13:23:16;4.63;;;2.10;;
21272;SDS011;36726;52.328;10.552;2022-08-05T13:25:47;2.15;;;1.85;;
21272;SDS011;36726;52.328;10.552;2022-08-05T13:28:24;2.67;;;2.20;;
21272;SDS011;36726;52.328;10.552;2022-08-05T13:30:50;3.00;;;2.03;;
21272;SDS011;36726;52.328;10.552;2022-08-05T13:33:19;3.08;;;2.30;;
21272;SDS011;36726;52.328;10.552;2022-08-05T13:36:06;3.20;;;1.90;;
21272;SDS011;36726;52.328;10.552;2022-08-05T13:38:35;3.17;;;2.17;;
21272;SDS011;36726;52.328;10.552;2022-08-05T13:41:08;4.90;;;2.50;;
21272;SDS011;36726;52.328;10.552;2022-08-05T13:43:36;3.75;;;2.60;;
21272;SDS011;36726;52.328;10.552;2022-08-05T13:46:11;3.40;;;2.35;;
21272;SDS011;36726;52.328;10.552;2022-08-05T13:48:38;3.80;;;2.40;;
21272;SDS011;36726;52.328;10.552;2022-08-05T13:51:26;3.40;;;2.00;;
21272;SDS011;36726;52.328;10.552;2022-08-05T13:54:07;2.90;;;1.77;;
21272;SDS011;36726;52.328;10.552;2022-08-05T13:56:39;2.60;;;2.10;;
21272;SDS011;36726;52.328;10.552;2022-08-05T13:59:17;3.35;;;2.03;;
21272;SDS011;36726;52.328;10.552;2022-08-05T14:01:47;1.98;;;1.63;;
21272;SDS011;36726;52.328;10.552;2022-08-05T14:04:28;2.35;;;1.85;;
21272;SDS011;36726;52.328;10.552;2022-08-05T14:07:17;2.33;;;1.40;;
21272;SDS011;36726;52.328;10.552;2022-08-05T14:10:05;1.65;;;1.20;;
21272;SDS011;36726;52.328;10.552;2022-08-05T14:12:54;1.67;;;1.25;;
21272;SDS011;36726;52.328;10.552;2022-08-05T14:15:22;1.42;;;1.10;;
21272;SDS011;36726;52.328;10.552;2022-08-05T14:18:10;1.08;;;0.80;;
21272;SDS011;36726;52.328;10.552;2022-08-05T14:20:47;1.42;;;1.00;;
21272;SDS011;36726;52.328;10.552;2022-08-05T14:23:18;1.13;;;0.80;;
21272;SDS011;36726;52.328;10.552;2022-08-05T14:25:55;1.75;;;0.90;;
21272;SDS011;36726;52.328;10.552;2022-08-05T14:28:25;1.48;;;0.70;;
21272;SDS011;36726;52.328;10.552;2022-08-05T14:30:53;1.27;;;1.13;;
21272;SDS011;36726;52.328;10.552;2022-08-05T14:33:21;1.60;;;1.10;;
21272;SDS011;36726;52.328;10.552;2022-08-05T14:35:49;1.05;;;0.93;;
21272;SDS011;36726;52.328;10.552;2022-08-05T14:38:19;0.90;;;0.80;;
21272;SDS011;36726;52.328;10.552;2022-08-05T14:41:04;1.90;;;0.98;;
21272;SDS011;36726;52.328;10.552;2022-08-05T14:43:36;1.52;;;1.05;;
21272;SDS011;36726;52.328;10.552;2022-08-05T14:46:23;1.83;;;1.27;;
21272;SDS011;36726;52.328;10.552;2022-08-05T14:48:58;1.40;;;1.10;;
21272;SDS011;36726;52.328;10.552;2022-08-05T14:51:36;2.83;;;1.33;;
21272;SDS011;36726;52.328;10.552;2022-08-05T14:54:08;1.73;;;1.17;;
21272;SDS011;36726;52.328;10.552;2022-08-05T14:56:55;1.77;;;1.25;;
21272;SDS011;36726;52.328;10.552;2022-08-05T14:59:23;1.27;;;1.13;;
21272;SDS011;36726;52.328;10.552;2022-08-05T15:01:54;1.52;;;1.17;;
21272;SDS011;36726;52.328;10.552;2022-08-05T15:04:22;1.73;;;1.33;;
21272;SDS011;36726;52.328;10.552;2022-08-05T15:06:52;2.55;;;1.27;;
21272;SDS011;36726;52.328;10.552;2022-08-05T15:09:19;1.23;;;1.02;;
21272;SDS011;36726;52.328;10.552;2022-08-05T15:12:07;1.35;;;1.05;;
21272;SDS011;36726;52.328;10.552;2022-08-05T15:14:42;3.58;;;1.02;;
21272;SDS011;36726;52.328;10.552;2022-08-05T15:17:16;2.13;;;1.23;;
21272;SDS011;36726;52.328;10.552;2022-08-05T15:20:06;2.55;;;1.15;;
21272;SDS011;36726;52.328;10.552;2022-08-05T15:22:44;1.38;;;1.10;;
21272;SDS011;36726;52.328;10.552;2022-08-05T15:25:17;1.60;;;1.30;;
21272;SDS011;36726;52.328;10.552;2022-08-05T15:28:05;1.08;;;0.80;;
21272;SDS011;36726;52.328;10.552;2022-08-05T15:30:32;1.30;;;1.20;;
21272;SDS011;36726;52.328;10.552;2022-08-05T15:33:02;2.55;;;1.33;;
21272;SDS011;36726;52.328;10.552;2022-08-05T15:35:30;1.48;;;1.15;;
21272;SDS011;36726;52.328;10.552;2022-08-05T15:38:01;1.60;;;1.20;;
21272;SDS011;36726;52.328;10.552;2022-08-05T15:40:48;1.55;;;1.23;;
21272;SDS011;36726;52.328;10.552;2022-08-05T15:43:34;2.30;;;1.15;;
21272;SDS011;36726;52.328;10.552;2022-08-05T15:46:12;2.38;;;1.13;;
21272;SDS011;36726;52.328;10.552;2022-08-05T15:48:39;1.33;;;1.05;;
21272;SDS011;36726;52.328;10.552;2022-08-05T15:51:18;2.22;;;1.10;;
21272;SDS011;36726;52.328;10.552;2022-08-05T15:54:07;2.15;;;1.27;;
21272;SDS011;36726;52.328;10.552;2022-08-05T15:56:40;1.45;;;1.10;;
21272;SDS011;36726;52.328;10.552;2022-08-05T15:59:06;1.10;;;0.90;;
21272;SDS011;36726;52.328;10.552;2022-08-05T16:01:33;2.42;;;1.30;;
21272;SDS011;36726;52.328;10.552;2022-08-05T16:04:05;1.85;;;1.15;;
21272;SDS011;36726;52.328;10.552;2022-08-05T16:06:35;1.63;;;1.13;;
21272;SDS011;36726;52.328;10.552;2022-08-05T16:09:02;2.05;;;1.33;;
21272;SDS011;36726;52.328;10.552;2022-08-05T16:11:29;1.15;;;1.05;;
21272;SDS011;36726;52.328;10.552;2022-08-05T16:14:05;1.35;;;1.25;;